地図

経路データ

SID SEASON NUMBER BASIN SUBBASIN NAME ISO_TIME NATURE LAT LON WMO_WIND WMO_PRES WMO_AGENCY TRACK_TYPE DIST2LAND LANDFALL IFLAG USA_AGENCY USA_ATCF_ID USA_LAT USA_LON USA_RECORD USA_STATUS USA_WIND USA_PRES USA_SSHS USA_R34_NE USA_R34_SE USA_R34_SW USA_R34_NW USA_R50_NE USA_R50_SE USA_R50_SW USA_R50_NW USA_R64_NE USA_R64_SE USA_R64_SW USA_R64_NW USA_POCI USA_ROCI USA_RMW USA_EYE TOKYO_LAT TOKYO_LON TOKYO_GRADE TOKYO_WIND TOKYO_PRES TOKYO_R50_DIR TOKYO_R50_LONG TOKYO_R50_SHORT TOKYO_R30_DIR TOKYO_R30_LONG TOKYO_R30_SHORT TOKYO_LAND CMA_LAT CMA_LON CMA_CAT CMA_WIND CMA_PRES HKO_LAT HKO_LON HKO_CAT HKO_WIND HKO_PRES NEWDELHI_LAT NEWDELHI_LON NEWDELHI_GRADE NEWDELHI_WIND NEWDELHI_PRES NEWDELHI_CI NEWDELHI_DP NEWDELHI_POCI REUNION_LAT REUNION_LON REUNION_TYPE REUNION_WIND REUNION_PRES REUNION_TNUM REUNION_CI REUNION_RMW REUNION_R34_NE REUNION_R34_SE REUNION_R34_SW REUNION_R34_NW REUNION_R50_NE REUNION_R50_SE REUNION_R50_SW REUNION_R50_NW REUNION_R64_NE REUNION_R64_SE REUNION_R64_SW REUNION_R64_NW BOM_LAT BOM_LON BOM_TYPE BOM_WIND BOM_PRES BOM_TNUM BOM_CI BOM_RMW BOM_R34_NE BOM_R34_SE BOM_R34_SW BOM_R34_NW BOM_R50_NE BOM_R50_SE BOM_R50_SW BOM_R50_NW BOM_R64_NE BOM_R64_SE BOM_R64_SW BOM_R64_NW BOM_ROCI BOM_POCI BOM_EYE BOM_POS_METHOD BOM_PRES_METHOD NADI_LAT NADI_LON NADI_CAT NADI_WIND NADI_PRES WELLINGTON_LAT WELLINGTON_LON WELLINGTON_WIND WELLINGTON_PRES DS824_LAT DS824_LON DS824_STAGE DS824_WIND DS824_PRES TD9636_LAT TD9636_LON TD9636_STAGE TD9636_WIND TD9636_PRES TD9635_LAT TD9635_LON TD9635_WIND TD9635_PRES TD9635_ROCI NEUMANN_LAT NEUMANN_LON NEUMANN_CLASS NEUMANN_WIND NEUMANN_PRES MLC_LAT MLC_LON MLC_CLASS MLC_WIND MLC_PRES USA_GUST BOM_GUST BOM_GUST_PER REUNION_GUST REUNION_GUST_PER USA_SEAHGT USA_SEARAD_NE USA_SEARAD_SE USA_SEARAD_SW USA_SEARAD_NW STORM_SPEED STORM_DIR
1952171N12130 1952 33 WP MM DINAH 1952-06-19 00:00:00 TS 12.0000 129.500 1006 tokyo main 418 363 OOO______OOO__ jtwc_wp WP021952 12.0000 129.500 30 -1 12.0000 129.500 2 1006 0 0 0 12.0000 129.500 1 29 1006 12.0000 129.500 TC 30 12.0000 129.500 1 30 12.0000 129.500 30 1003 180 13 286
1952171N12130 1952 33 WP MM DINAH 1952-06-19 03:00:00 TS 12.1744 128.881 main 363 305 PPP______PPP__ WP021952 12.2656 128.795 30 -1 11.8697 129.079 2 1005 0 0 12.0152 128.862 1 29 1005 12.2656 128.795 TC 30 12.3647 128.960 1 30 12.2656 128.795 30 1003 180 13 291
1952171N12130 1952 33 WP MM DINAH 1952-06-19 06:00:00 TS 12.4555 128.286 1004 tokyo main 306 258 OOO______OPO__ jtwc_wp WP021952 12.6000 128.200 30 -1 12.0000 128.500 2 1004 0 0 0 12.2000 128.200 1 29 1004 12.6000 128.200 TC 30 12.7332 128.416 1 30 12.6000 128.200 30 1003 180 14 303
1952171N12130 1952 33 WP MM DINAH 1952-06-19 09:00:00 TS 12.9052 127.722 main 251 221 PPP______PPP__ WP021952 13.0420 127.765 30 -1 12.5404 127.674 2 1003 0 0 12.6549 127.500 1 29 1003 13.0420 127.765 TC 30 13.1101 127.864 1 30 13.0420 127.765 30 1002 150 15 310
1952171N12130 1952 33 WP MM DINAH 1952-06-19 12:00:00 TS 13.4000 127.133 1003 tokyo main 219 194 OOO______OOO__ jtwc_wp WP021952 13.5000 127.300 30 -1 13.2000 126.800 2 1003 0 0 0 13.2000 126.800 1 29 1003 13.5000 127.300 TC 30 13.5000 127.300 1 30 13.5000 127.300 30 1002 120 15 304
1952171N12130 1952 33 WP MM DINAH 1952-06-19 15:00:00 TS 13.7716 126.425 main 195 152 PPP______PPP__ WP021952 13.8355 126.542 30 -1 13.6148 126.089 2 1002 0 0 13.6000 126.112 1 33 1002 13.8355 126.542 TC 30 13.9080 126.723 1 30 13.8355 126.542 30 1001 120 15 300
1952171N12130 1952 33 WP MM DINAH 1952-06-19 18:00:00 TS 14.1566 125.757 1002 tokyo main 154 124 OOO______OPO__ jtwc_wp WP021952 14.2000 125.800 30 -1 14.0000 125.500 2 1002 0 0 0 14.0000 125.500 2 38 1002 14.2000 125.800 TC 30 14.3398 126.142 1 30 14.2000 125.800 30 1001 120 14 309
1952171N12130 1952 33 WP MM DINAH 1952-06-19 21:00:00 TS 14.6599 125.279 main 132 124 PPP______PPP__ WP021952 14.7344 125.377 30 -1 14.4849 124.990 2 1001 0 0 14.4699 124.990 2 38 1001 14.7344 125.377 TC 30 14.8017 125.564 1 30 14.7344 125.377 30 1000 120 14 320
1952171N12130 1952 33 WP MM DINAH 1952-06-20 00:00:00 TS 15.2000 124.867 1000 tokyo main 149 144 OOO______OOO__ jtwc_wp WP021952 15.3000 125.000 30 -1 15.0000 124.600 2 1000 0 0 0 15.0000 124.600 2 38 1000 15.3000 125.000 TC 30 15.3000 125.000 1 30 15.3000 125.000 30 999 120 14 319
1952171N12130 1952 33 WP MM DINAH 1952-06-20 03:00:00 TS 15.6800 124.364 main 190 168 PPP______PPP__ WP021952 15.7277 124.407 30 -1 15.4999 124.297 2 997 0 0 15.5774 124.312 2 43 997 15.7277 124.407 TC 30 15.8194 124.353 1 31 15.7277 124.407 30 998 150 14 317
1952171N12130 1952 33 WP MM DINAH 1952-06-20 06:00:00 TS 16.1960 123.889 995 tokyo main 168 107 OOO______OPO__ jtwc_wp WP021952 16.2000 123.800 30 -1 16.0000 124.100 9 995 0 0 0 16.2000 124.100 3 48 995 16.2000 123.800 TC 30 16.3760 123.736 1 32 16.2000 123.800 30 997 180 14 323
1952171N12130 1952 33 WP MM DINAH 1952-06-20 09:00:00 TS 16.8065 123.487 main 107 85 PPP______PPP__ WP021952 16.8700 123.253 32 -1 16.4248 124.029 9 995 0 0 16.8349 123.907 3 48 995 16.8700 123.253 TC 32 16.9694 123.225 1 33 16.8700 123.253 32 995 180 15 333
1952171N12130 1952 33 WP MM DINAH 1952-06-20 12:00:00 TS 17.4833 123.200 995 tokyo main 87 85 OOO______OOO__ jtwc_wp WP021952 17.6000 122.900 35 0 17.0000 123.900 9 995 0 0 0 17.5000 123.700 3 48 995 17.6000 122.900 TC 35 17.6000 122.900 2 35 17.6000 122.900 35 994 180 15 343
1952171N12130 1952 33 WP MM DINAH 1952-06-20 15:00:00 TS 18.2102 123.045 main 74 73 PPP______PPP__ WP021952 18.2423 122.845 35 0 18.0004 123.467 9 990 0 0 18.2300 123.408 3 53 990 18.2423 122.845 TC 35 18.3039 122.865 2 37 18.2423 122.845 35 992 210 15 353
1952171N12130 1952 33 WP MM DINAH 1952-06-20 18:00:00 TS 18.9395 123.019 985 tokyo main 92 92 OOO______OPO__ jtwc_wp WP021952 18.9000 123.000 35 0 19.0000 123.000 9 985 0 0 0 18.9000 123.100 3 58 985 18.9000 123.000 TC 35 19.0369 123.015 2 40 18.9000 123.000 35 991 240 14 1
1952171N12130 1952 33 WP MM DINAH 1952-06-20 21:00:00 TS 19.6269 123.087 main 158 158 PPP______PPP__ WP021952 19.6801 123.249 40 0 19.5973 122.724 9 983 0 0 19.3725 122.790 3 58 983 19.6801 123.249 TC 40 19.7514 123.259 2 42 19.6801 123.249 40 989 210 13 8
1952171N12130 1952 33 WP MM DINAH 1952-06-21 00:00:00 TS 20.2333 123.200 982 tokyo main 222 222 OOO______OOO__ jtwc_wp WP021952 20.4000 123.500 45 0 20.0000 122.600 9 982 0 0 0 19.8000 122.600 3 58 982 20.4000 123.500 TC 45 20.4000 123.500 2 45 20.4000 123.500 45 987 180 11 8
1952171N12130 1952 33 WP MM DINAH 1952-06-21 03:00:00 TS 20.7257 123.257 main 277 263 PPP______PPP__ WP021952 20.8949 123.573 47 0 20.3649 122.597 9 981 0 0 20.3424 122.632 3 58 981 20.8949 123.573 TC 47 20.9623 123.591 2 48 20.8949 123.573 47 985 210 9 7
1952171N12130 1952 33 WP MM DINAH 1952-06-21 06:00:00 TS 21.1583 123.327 980 tokyo main 260 256 OOO______OPO__ jtwc_wp WP021952 21.3000 123.600 50 0 20.7000 122.700 9 980 0 0 0 20.9000 122.800 3 58 980 21.3000 123.600 TC 50 21.4497 123.661 2 52 21.3000 123.600 50 984 240 9 10
1952171N12130 1952 33 WP MM DINAH 1952-06-21 09:00:00 TS 21.6158 123.433 main 260 248 PPP______PPP__ WP021952 21.7800 123.692 55 0 21.0775 122.820 9 977 0 0 21.4150 122.978 3 63 978 21.7800 123.692 TC 55 21.8623 123.726 2 56 21.7800 123.692 55 982 210 9 14
1952171N12130 1952 33 WP MM DINAH 1952-06-21 12:00:00 TS 22.0333 123.567 975 tokyo main 257 242 OOO______OOO__ jtwc_wp WP021952 22.2000 123.800 60 0 21.5000 123.000 9 975 0 0 0 21.9000 123.200 4 68 977 22.2000 123.800 TC 60 22.2000 123.800 2 60 22.2000 123.800 60 980 180 8 18
1952171N12130 1952 33 WP MM DINAH 1952-06-21 15:00:00 TS 22.3676 123.694 main 248 245 PPP______PPP__ WP021952 22.4649 123.878 65 1 21.9924 123.220 9 975 0 0 22.3650 123.435 4 68 975 22.4649 123.878 TC 65 22.4532 123.873 2 65 22.4649 123.878 65 978 210 7 23
1952171N12130 1952 33 WP MM DINAH 1952-06-21 18:00:00 TS 22.6833 123.867 975 tokyo main 259 258 OOO______OOO__ jtwc_wp WP021952 22.7000 124.000 70 1 22.5000 123.500 9 975 0 0 0 22.8000 123.700 4 68 974 22.7000 124.000 TC 70 22.7000 124.000 3 70 22.7000 124.000 70 976 240 8 29
1952171N12130 1952 33 WP MM DINAH 1952-06-21 21:00:00 TS 23.0272 124.095 main 276 272 PPP______PPP__ WP021952 22.9973 124.191 72 1 22.9575 123.828 9 972 0 0 23.2149 123.978 4 72 973 22.9973 124.191 TC 72 22.9992 124.195 3 72 22.9973 124.191 72 974 240 9 34
1952171N12130 1952 33 WP MM DINAH 1952-06-22 00:00:00 TS 23.4333 124.417 970 tokyo main 282 277 OOO______OOO__ jtwc_wp WP021952 23.4000 124.500 75 1 23.4000 124.200 9 970 0 0 0 23.6000 124.300 4 77 972 23.4000 124.500 TC 75 23.4000 124.500 4 75 23.4000 124.500 75 972 240 11 37
1952171N12130 1952 33 WP MM DINAH 1952-06-22 03:00:00 TS 23.9094 124.825 main 301 301 PPP______PPP__ WP021952 23.9324 124.941 75 1 23.8121 124.556 9 969 0 0 23.9047 124.656 4 77 970 23.9324 124.941 TC 75 23.9423 124.918 4 75 23.9324 124.941 75 972 240 14 38
1952171N12130 1952 33 WP MM DINAH 1952-06-22 06:00:00 TS 24.5026 125.343 968 tokyo main 337 337 OOO______OPO__ jtwc_wp WP021952 24.6000 125.500 75 1 24.3000 125.000 9 968 0 0 0 24.3000 125.100 4 77 968 24.6000 125.500 TC 75 24.6157 125.458 4 75 24.6000 125.500 75 973 240 17 38
1952171N12130 1952 33 WP MM DINAH 1952-06-22 09:00:00 TS 25.2133 125.938 main 393 393 PPP______PPP__ WP021952 25.3472 126.106 75 1 24.9323 125.583 9 964 0 0 24.9246 125.633 4 82 965 25.3472 126.106 TC 75 25.3812 126.094 4 75 25.3472 126.106 75 973 240 19 37
1952171N12130 1952 33 WP MM DINAH 1952-06-22 12:00:00 TS 26.0333 126.633 960 tokyo main 474 474 OOO______OOO__ jtwc_wp WP021952 26.2000 126.800 75 1 25.7000 126.300 9 960 0 0 0 25.7000 126.300 5 87 962 26.2000 126.800 TC 75 26.2000 126.800 4 75 26.2000 126.800 75 974 240 21 38
1952171N12130 1952 33 WP MM DINAH 1952-06-22 15:00:00 TS 26.9098 127.389 main 551 425 PPP______PPP__ WP021952 27.1574 127.577 72 1 26.5398 127.106 9 960 0 0 26.4820 127.077 5 82 964 27.1574 127.577 TC 72 26.9647 127.418 4 72 27.1574 127.577 72 975 270 23 38
1952171N12130 1952 33 WP MM DINAH 1952-06-22 18:00:00 TS 27.8296 128.219 960 tokyo main 425 312 OOO______OPO__ jtwc_wp WP021952 28.1000 128.400 70 1 27.5000 128.000 9 960 0 0 0 27.4000 128.000 4 77 966 28.1000 128.400 TC 70 27.7778 128.113 4 70 28.1000 128.400 70 976 300 23 39
1952171N12130 1952 33 WP MM DINAH 1952-06-22 21:00:00 TS 28.6801 129.037 main 301 170 PPP______PPP__ WP021952 28.7882 129.139 67 1 28.5672 128.842 9 965 0 0 28.4962 129.012 4 72 967 28.7882 129.139 TC 67 28.6523 128.951 4 67 28.7882 129.139 67 976 300 24 41
1952171N12130 1952 33 WP MM DINAH 1952-06-23 00:00:00 TS 29.6333 130.017 970 tokyo main 170 44 OOO______OOO__ jtwc_wp WP021952 29.6000 130.000 65 1 29.7000 129.900 9 970 0 0 0 29.7000 130.200 4 68 969 29.6000 130.000 TC 65 29.6000 130.000 4 65 29.6000 130.000 65 977 300 29 41
1952171N12130 1952 33 WP MM DINAH 1952-06-23 03:00:00 TS 30.8785 131.255 main 48 29 PPP______PPP__ WP021952 30.9395 131.076 62 0 30.8239 131.409 9 972 0 0 30.9517 131.574 4 68 970 30.9395 131.076 TC 62 30.6768 131.317 4 62 30.9395 131.076 62 978 270 34 43
1952171N12130 1952 33 WP MM DINAH 1952-06-23 06:00:00 TS 32.1173 132.761 974 tokyo main 69 24 OOO______OPO__ jtwc_wp WP021952 32.3000 132.500 60 0 31.9000 133.100 9 974 0 0 0 32.1000 133.100 4 68 972 32.3000 132.500 TC 60 31.8037 132.867 4 60 32.3000 132.500 60 979 240 35 52
1952171N12130 1952 33 WP MM DINAH 1952-06-23 09:00:00 TS 33.0471 134.494 main 35 0 PPP______PPP__ WP021952 33.1993 134.363 57 0 32.8611 134.619 9 972 0 0 32.9207 134.670 4 68 972 33.1993 134.363 TC 57 32.9029 134.585 4 57 33.1993 134.363 57 979 210 35 60
1952171N12130 1952 33 WP MM DINAH 1952-06-23 12:00:00 TS 33.8500 136.350 970 tokyo main 21 0 OOO______OOO__ jtwc_wp WP021952 33.9000 136.400 55 0 33.8000 136.200 9 970 0 0 0 33.7000 136.300 4 68 972 33.9000 136.400 TC 55 33.9000 136.400 2 55 33.9000 136.400 55 980 180 35 62
1952171N12130 1952 33 WP MM DINAH 1952-06-23 15:00:00 TS 34.7051 138.178 main 0 0 PPP______PPP__ WP021952 34.6186 138.262 52 0 34.8535 138.047 9 977 0 0 34.7785 137.990 4 63 976 34.6186 138.262 TC 52 34.7427 138.247 2 52 34.6186 138.262 52 981 210 34 61
1952171N12130 1952 33 WP MM DINAH 1952-06-23 18:00:00 MX 35.4935 139.997 984 tokyo main 0 0 OOO______OPO__ jtwc_wp WP021952 35.3000 140.100 50 0 35.8000 139.900 9 984 0 0 0 35.8000 139.700 9 58 980 35.3000 140.100 TC 50 35.4500 140.111 2 50 35.3000 140.100 50 983 240 33 63
1952171N12130 1952 33 WP MM DINAH 1952-06-23 21:00:00 MX 36.1764 141.786 main 98 98 PPP______PPP__ WP021952 35.9724 142.053 47 0 36.5037 141.396 9 983 0 0 36.5205 141.272 9 53 981 35.9724 142.053 TC 47 36.0576 141.995 2 47 35.9724 142.053 47 984 240 31 66
1952171N12130 1952 33 WP MM DINAH 1952-06-24 00:00:00 MX 36.7600 143.540 982 tokyo main 222 222 OOO______OOO__ jtwc_wp WP021952 36.6000 143.900 45 0 37.0000 143.000 9 982 0 0 0 37.0000 143.000 9 48 982 36.6000 143.900 TC 45 36.6000 143.900 2 45 36.6000 143.900 45 985 240 30 68
1952171N12130 1952 33 WP MM DINAH 1952-06-24 03:00:00 MX 37.2848 145.245 main 342 342 PPP______P_P__ WP021952 37.2880 145.299 45 0 37.3396 145.124 9 985 0 0 37.2814 145.141 9 48 985 37.2880 145.299 TC 45 2 37.1689 145.480 45 986 240 30 74
1952171N12130 1952 33 WP MM DINAH 1952-06-24 06:00:00 MX 37.5824 147.182 988 tokyo main 490 490 OOO______O_O__ jtwc_wp WP021952 37.7000 146.900 45 0 37.5000 147.500 9 988 0 0 0 37.4000 147.500 9 48 988 37.7000 146.900 TC 45 2 37.7000 146.900 45 987 240 35 87
1952171N12130 1952 33 WP MM DINAH 1952-06-24 09:00:00 MX 37.4634 149.603 main 687 687 PPP______P____ WP021952 37.4211 149.317 42 0 37.5194 149.890 9 989 0 0 37.4918 149.885 9 48 989 37.4211 149.317 TC 42 2 40 95
1952171N12130 1952 33 WP MM DINAH 1952-06-24 12:00:00 MX 37.2500 152.150 990 tokyo main 866 861 OOO______O____ jtwc_wp WP021952 37.0000 152.000 40 0 37.5000 152.300 9 990 0 0 0 37.5000 152.300 9 48 990 37.0000 152.000 TC 40 40 93
1952171N12130 1952 33 WP MM DINAH 1952-06-24 15:00:00 MX 37.2857 154.585 main 1008 1008 PPP______P____ WP021952 37.0218 154.539 42 0 37.6608 154.626 9 990 0 0 37.4384 154.634 9 48 990 37.0218 154.539 TC 42 39 89
1952171N12130 1952 33 WP MM DINAH 1952-06-24 18:00:00 MX 37.3500 157.000 990 tokyo main 1094 1103 OOO______O____ jtwc_wp WP021952 37.2000 157.000 45 0 37.7000 157.000 6 990 0 0 0 37.3000 157.000 9 48 990 37.2000 157.000 TC 45 38 91
1952171N12130 1952 33 WP MM DINAH 1952-06-24 21:00:00 MX 37.2154 159.404 main 1232 1232 PPP______P____ WP021952 37.3250 159.363 52 0 37.2208 159.449 6 990 0 0 36.9909 159.441 9 48 990 37.3250 159.363 TC 52 38 93
1952171N12130 1952 33 WP MM DINAH 1952-06-25 00:00:00 MX 37.1500 161.750 990 tokyo main 1363 1363 OOO______O____ jtwc_wp WP021952 37.5000 161.500 60 0 36.8000 162.000 6 990 0 0 0 36.8000 162.000 9 48 990 37.5000 161.500 TC 60 37 88
1952171N12130 1952 33 WP MM DINAH 1952-06-25 03:00:00 MX 37.3196 164.084 main 1493 1493 PPP______P____ WP021952 37.7662 163.323 52 0 36.8580 164.843 6 991 0 0 36.8879 164.846 9 48 990 37.7662 163.323 TC 52 38 83
1952171N12130 1952 33 WP MM DINAH 1952-06-25 06:00:00 MX 37.6000 166.486 992 tokyo main 1626 1626 OOO______O____ jtwc_wp WP021952 38.0000 165.000 45 0 37.3000 167.600 6 992 0 0 0 37.3000 167.600 9 48 990 38.0000 165.000 TC 45 39 79
1952171N12130 1952 33 WP MM DINAH 1952-06-25 09:00:00 MX 38.0428 168.903 main 1700 1695 PPP______P____ WP021952 38.0621 166.728 42 0 38.0331 169.990 6 988 0 0 38.0331 169.990 9 987 38.0621 166.728 TC 42 40 72
1952171N12130 1952 33 WP MM DINAH 1952-06-25 12:00:00 MX 38.8000 171.300 985 tokyo main 1749 1746 OOO______O____ jtwc_wp WP021952 38.0000 168.500 40 0 39.0000 172.000 6 985 0 0 0 39.0000 172.000 9 985 38.0000 168.500 TC 40 43 62
1952171N12130 1952 33 WP MM DINAH 1952-06-25 15:00:00 ET 40.0352 173.781 main 1772 1744 _PP___________ WP021952 -1 40.0352 173.781 6 985 0 0 40.0352 173.781 9 985 TC 36 52
1952171N12130 1952 33 WP MM DINAH 1952-06-25 18:00:00 ET 41.0000 175.000 985 tokyo main 1744 1710 _OO___________ -1 41.0000 175.000 6 985 0 0 0 41.0000 175.000 9 985 20 39
1952171N12130 1952 33 WP MM DINAH 1952-06-25 21:00:00 ET 41.6038 175.489 main 1710 1652 _PP___________ -1 41.6038 175.489 6 983 0 0 41.6038 175.489 9 983 13 21
1952171N12130 1952 33 WP MM DINAH 1952-06-26 00:00:00 ET 42.2000 175.600 982 tokyo main 1652 1573 _OO___________ -1 42.2000 175.600 6 982 0 0 0 42.2000 175.600 9 982 15 11
1952171N12130 1952 33 WP MM DINAH 1952-06-26 03:00:00 ET 43.0445 175.852 main 1568 1468 _PP___________ -1 43.0445 175.852 6 982 0 0 43.0445 175.852 9 982 20 13
1952171N12130 1952 33 WP MM DINAH 1952-06-26 06:00:00 ET 44.1000 176.200 982 tokyo main 1460 1350 _OO___________ -1 44.1000 176.200 6 982 0 0 0 44.1000 176.200 9 982 23 13
1952171N12130 1952 33 WP MM DINAH 1952-06-26 09:00:00 ET 45.2914 176.599 main 1343 1200 _PP___________ -1 45.2627 176.514 6 982 0 0 45.3488 176.770 9 982 28 19
1952171N12130 1952 33 WP MM DINAH 1952-06-26 12:00:00 ET 46.7000 177.500 982 tokyo main 1187 953 _OO___________ -1 46.7000 177.500 6 982 0 0 0 46.7000 177.500 9 982 38 35
1952171N12130 1952 33 WP MM DINAH 1952-06-26 15:00:00 ET 48.4446 179.776 main 935 644 _P____________ -1 48.4446 179.776 6 983 0 0 9 51 45
1952171N12130 1952 33 EP CP DINAH 1952-06-26 18:00:00 ET 50.3000 183.000 main 626 _O____________ -1 50.3000 183.000 6 985 0 0 0 56 48

デジタル台風データ・検索

IBTrACS Databaseについて

本データベースは、米国NOAAが公開する1842年以降の世界の熱帯低気圧のベストトラックデータアーカイブInternational Best Track Archive for Climate Stewardship (IBTrACS)を、ウェブで閲覧しやすい形式に変換したものです。

最終更新日:2021-12-03